createdAt,value
2022-11-08T00:00:03.915Z,0.000000
2022-11-08T00:01:00.653Z,0.000000
2022-11-08T00:02:00.754Z,0.000000
2022-11-08T00:03:00.699Z,0.000000
2022-11-08T00:04:00.704Z,0.000000
2022-11-08T00:05:04.835Z,0.000000
2022-11-08T00:06:00.746Z,0.000000
2022-11-08T00:07:00.697Z,0.000000
2022-11-08T00:08:00.756Z,0.000000
2022-11-08T00:09:00.678Z,0.000000
2022-11-08T00:10:05.916Z,0.000000
2022-11-08T00:11:00.692Z,0.000000
2022-11-08T00:12:00.774Z,0.000000
2022-11-08T00:13:00.743Z,0.000000
2022-11-08T00:14:00.776Z,0.000000
2022-11-08T00:15:03.876Z,0.000000
2022-11-08T00:16:00.787Z,0.000000
2022-11-08T00:17:00.729Z,0.000000
2022-11-08T00:18:00.819Z,0.000000
2022-11-08T00:19:00.800Z,0.000000
2022-11-08T00:20:04.358Z,0.000000
2022-11-08T00:21:00.808Z,0.000000
2022-11-08T00:22:00.861Z,0.000000
2022-11-08T00:23:00.795Z,0.000000
2022-11-08T00:24:00.913Z,0.000000
2022-11-08T00:25:03.844Z,0.000000
2022-11-08T00:26:00.886Z,0.000000
2022-11-08T00:27:00.816Z,0.000000
2022-11-08T00:28:00.901Z,0.000000
2022-11-08T00:29:00.828Z,0.000000
2022-11-08T00:30:05.716Z,0.000000
2022-11-08T00:31:00.835Z,0.000000
2022-11-08T00:32:00.910Z,0.000000
2022-11-08T00:33:00.877Z,0.000000
2022-11-08T00:34:00.926Z,0.000000
2022-11-08T00:35:04.167Z,0.000000
2022-11-08T00:36:00.985Z,0.000000
2022-11-08T00:37:00.898Z,0.000000
2022-11-08T00:38:00.959Z,0.000000
2022-11-08T00:39:00.909Z,0.000000
2022-11-08T00:40:04.412Z,0.000000
2022-11-08T00:41:00.910Z,0.000000
2022-11-08T00:42:01.048Z,0.000000
2022-11-08T00:43:00.931Z,0.000000
2022-11-08T00:44:01.002Z,0.000000
2022-11-08T00:45:03.979Z,0.000000
2022-11-08T00:46:01.027Z,0.000000
2022-11-08T00:47:00.972Z,0.000000
2022-11-08T00:48:01.091Z,0.000000
2022-11-08T00:49:00.973Z,0.000000
2022-11-08T00:50:05.947Z,0.000000
2022-11-08T00:51:01.002Z,0.000000
2022-11-08T00:52:01.077Z,0.000000
2022-11-08T00:53:01.027Z,0.000000
2022-11-08T00:54:01.119Z,0.000000
2022-11-08T00:55:04.614Z,0.000000
2022-11-08T00:56:01.132Z,0.000000
2022-11-08T00:57:01.063Z,0.000000
2022-11-08T00:58:01.193Z,0.000000
2022-11-08T00:59:01.066Z,0.000000
2022-11-08T01:00:05.581Z,0.000000
2022-11-08T01:01:01.168Z,0.000000
2022-11-08T01:02:01.365Z,0.000000
2022-11-08T01:03:01.105Z,0.000000
2022-11-08T01:04:01.184Z,0.000000
2022-11-08T01:05:04.113Z,0.000000
2022-11-08T01:06:01.212Z,0.000000
2022-11-08T01:07:01.130Z,0.000000
2022-11-08T01:08:01.207Z,0.000000
2022-11-08T01:09:01.155Z,0.000000
2022-11-08T01:10:05.669Z,0.000000
2022-11-08T01:11:01.182Z,0.000000
2022-11-08T01:12:01.251Z,0.000000
2022-11-08T01:13:01.191Z,0.000000
2022-11-08T01:14:01.260Z,0.000000
2022-11-08T01:15:05.508Z,0.000000
2022-11-08T01:16:00.318Z,0.000000
2022-11-08T01:17:00.209Z,0.000000
2022-11-08T01:18:00.308Z,0.000000
2022-11-08T01:19:00.223Z,0.000000
2022-11-08T01:20:03.708Z,0.000000
2022-11-08T01:21:00.251Z,0.000000
2022-11-08T01:22:00.369Z,0.000000
2022-11-08T01:23:00.253Z,0.000000
2022-11-08T01:24:00.348Z,0.000000
2022-11-08T01:25:03.100Z,0.000000
2022-11-08T01:26:00.336Z,0.000000
2022-11-08T01:27:00.322Z,0.000000
2022-11-08T01:28:00.386Z,0.000000
2022-11-08T01:29:00.294Z,0.000000
2022-11-08T01:30:03.834Z,0.000000
2022-11-08T01:31:00.307Z,0.000000
2022-11-08T01:32:00.393Z,0.000000
2022-11-08T01:33:00.360Z,0.000000
2022-11-08T01:34:00.435Z,0.000000
2022-11-08T01:35:03.702Z,0.000000
2022-11-08T01:36:00.419Z,0.000000
2022-11-08T01:37:00.334Z,0.000000
2022-11-08T01:38:00.405Z,0.000000
2022-11-08T01:39:00.372Z,0.000000
2022-11-08T01:40:03.827Z,0.000000
2022-11-08T01:41:00.363Z,0.000000
2022-11-08T01:42:00.462Z,0.000000
2022-11-08T01:43:00.428Z,0.000000
2022-11-08T01:44:00.453Z,0.000000
2022-11-08T01:45:05.162Z,0.000000
2022-11-08T01:46:00.484Z,0.000000
2022-11-08T01:47:00.409Z,0.000000
2022-11-08T01:48:00.497Z,0.000000
2022-11-08T01:49:00.421Z,0.000000
2022-11-08T01:50:03.521Z,0.000000
2022-11-08T01:51:00.488Z,0.000000
2022-11-08T01:52:00.519Z,0.000000
2022-11-08T01:53:00.459Z,0.000000
2022-11-08T01:54:00.538Z,0.000000
2022-11-08T01:55:04.677Z,0.000000
2022-11-08T01:56:00.522Z,0.000000
2022-11-08T01:57:00.514Z,0.000000
2022-11-08T01:58:00.577Z,0.000000
2022-11-08T01:59:00.534Z,0.000000
2022-11-08T02:00:03.905Z,0.000000
2022-11-08T02:01:00.577Z,0.000000
2022-11-08T02:02:00.727Z,0.000000
2022-11-08T02:03:00.604Z,0.000000
2022-11-08T02:04:00.620Z,0.000000
2022-11-08T02:05:04.822Z,0.000000
2022-11-08T02:06:00.663Z,0.000000
2022-11-08T02:07:00.567Z,0.000000
2022-11-08T02:08:00.645Z,0.000000
2022-11-08T02:09:00.637Z,0.000000
2022-11-08T02:10:03.865Z,0.000000
2022-11-08T02:11:00.601Z,0.000000
2022-11-08T02:12:00.696Z,0.000000
2022-11-08T02:13:04.578Z,0.000000
2022-11-08T02:14:00.686Z,0.000000
2022-11-08T02:15:05.040Z,0.000000
2022-11-08T02:16:00.704Z,0.000000
2022-11-08T02:17:00.640Z,0.000000
2022-11-08T02:18:00.745Z,0.000000
2022-11-08T02:19:00.658Z,0.000000
2022-11-08T02:20:03.953Z,0.000000
2022-11-08T02:21:00.702Z,0.000000
2022-11-08T02:22:00.759Z,0.000000
2022-11-08T02:23:00.689Z,0.000000
2022-11-08T02:24:00.790Z,0.000000
2022-11-08T02:25:04.912Z,0.000000
2022-11-08T02:26:00.789Z,0.000000
2022-11-08T02:27:00.745Z,0.000000
2022-11-08T02:28:00.787Z,0.000000
2022-11-08T02:29:00.737Z,0.000000
2022-11-08T02:30:03.900Z,0.000000
2022-11-08T02:31:00.778Z,0.000000
2022-11-08T02:32:00.819Z,0.000000
2022-11-08T02:33:00.790Z,0.000000
2022-11-08T02:34:00.839Z,0.000000
2022-11-08T02:35:04.957Z,0.000000
2022-11-08T02:36:00.855Z,0.000000
2022-11-08T02:37:00.790Z,0.000000
2022-11-08T02:38:00.852Z,0.000000
2022-11-08T02:39:00.839Z,0.000000
2022-11-08T02:40:05.915Z,0.000000
2022-11-08T02:41:00.825Z,0.000000
2022-11-08T02:42:00.905Z,0.000000
2022-11-08T02:43:00.840Z,0.000000
2022-11-08T02:44:00.925Z,0.000000
2022-11-08T02:45:04.017Z,0.000000
2022-11-08T02:46:00.938Z,0.000000
2022-11-08T02:47:00.895Z,0.000000
2022-11-08T02:48:00.971Z,0.000000
2022-11-08T02:49:00.879Z,0.000000
2022-11-08T02:50:05.362Z,0.000000
2022-11-08T02:51:00.908Z,0.000000
2022-11-08T02:52:00.979Z,0.000000
2022-11-08T02:53:00.913Z,0.000000
2022-11-08T02:54:01.003Z,0.000000
2022-11-08T02:55:05.429Z,0.000000
2022-11-08T02:56:01.041Z,0.000000
2022-11-08T02:57:00.951Z,0.000000
2022-11-08T02:58:01.030Z,0.000000
2022-11-08T02:59:00.958Z,0.000000
2022-11-08T03:00:05.479Z,0.000000
2022-11-08T03:01:01.168Z,0.000000
2022-11-08T03:02:01.260Z,0.000000
2022-11-08T03:03:01.037Z,0.000000
2022-11-08T03:04:01.088Z,0.000000
2022-11-08T03:05:03.918Z,0.000000
2022-11-08T03:06:01.115Z,0.000000
2022-11-08T03:07:01.047Z,0.000000
2022-11-08T03:08:01.138Z,0.000000
2022-11-08T03:09:01.070Z,0.000000
2022-11-08T03:10:05.716Z,0.000000
2022-11-08T03:11:01.077Z,0.000000
2022-11-08T03:12:01.183Z,0.000000
2022-11-08T03:13:01.079Z,0.000000
2022-11-08T03:14:01.193Z,0.000000
2022-11-08T03:15:04.348Z,0.000000
2022-11-08T03:16:01.161Z,0.000000
2022-11-08T03:17:01.112Z,0.000000
2022-11-08T03:18:01.245Z,0.000000
2022-11-08T03:19:01.162Z,0.000000
2022-11-08T03:20:05.742Z,0.000000
2022-11-08T03:21:01.168Z,0.000000
2022-11-08T03:22:01.242Z,0.000000
2022-11-08T03:23:01.199Z,0.000000
2022-11-08T03:24:01.252Z,0.000000
2022-11-08T03:25:05.410Z,0.000000
2022-11-08T03:26:00.301Z,0.000000
2022-11-08T03:27:00.214Z,0.000000
2022-11-08T03:28:00.280Z,0.000000
2022-11-08T03:29:00.220Z,0.000000
2022-11-08T03:30:05.450Z,0.000000
2022-11-08T03:31:00.251Z,0.000000
2022-11-08T03:32:00.322Z,0.000000
2022-11-08T03:33:00.262Z,0.000000
2022-11-08T03:34:00.380Z,0.000000
2022-11-08T03:35:06.920Z,0.000000
2022-11-08T03:36:00.370Z,0.000000
2022-11-08T03:37:00.292Z,0.000000
2022-11-08T03:38:00.423Z,0.000000
2022-11-08T03:39:00.313Z,0.000000
2022-11-08T03:40:03.569Z,0.000000
2022-11-08T03:41:00.339Z,0.000000
2022-11-08T03:42:00.423Z,0.000000
2022-11-08T03:43:00.347Z,0.000000
2022-11-08T03:44:00.445Z,0.000000
2022-11-08T03:45:04.603Z,0.000000
2022-11-08T03:46:00.428Z,0.000000
2022-11-08T03:47:00.369Z,0.000000
2022-11-08T03:48:00.473Z,0.000000
2022-11-08T03:49:00.371Z,0.000000
2022-11-08T03:50:05.061Z,0.000000
2022-11-08T03:51:00.400Z,0.000000
2022-11-08T03:52:00.483Z,0.000000
2022-11-08T03:53:00.413Z,0.000000
2022-11-08T03:54:00.502Z,0.000000
2022-11-08T03:55:04.611Z,0.000000
2022-11-08T03:56:00.524Z,0.000000
2022-11-08T03:57:00.428Z,0.000000
2022-11-08T03:58:00.508Z,0.000000
2022-11-08T03:59:00.440Z,0.000000
2022-11-08T04:00:07.384Z,0.000000
2022-11-08T04:01:00.536Z,0.000000
2022-11-08T04:02:00.722Z,0.000000
2022-11-08T04:03:00.487Z,0.000000
2022-11-08T04:04:00.588Z,0.000000
2022-11-08T04:05:03.566Z,0.000000
2022-11-08T04:06:00.630Z,0.000000
2022-11-08T04:07:00.509Z,0.000000
2022-11-08T04:08:00.628Z,0.000000
2022-11-08T04:09:00.536Z,0.000000
2022-11-08T04:10:05.082Z,0.000000
2022-11-08T04:11:00.562Z,0.000000
2022-11-08T04:12:00.644Z,0.000000
2022-11-08T04:13:00.568Z,0.000000
2022-11-08T04:14:00.710Z,0.000000
2022-11-08T04:15:03.454Z,0.000000
2022-11-08T04:16:02.361Z,0.000000
2022-11-08T04:17:00.595Z,0.000000
2022-11-08T04:18:00.706Z,0.000000
2022-11-08T04:19:00.622Z,0.000000
2022-11-08T04:20:04.218Z,0.000000
2022-11-08T04:21:00.637Z,0.000000
2022-11-08T04:22:00.767Z,0.000000
2022-11-08T04:23:00.637Z,0.000000
2022-11-08T04:24:00.718Z,0.000000
2022-11-08T04:25:03.660Z,0.000000
2022-11-08T04:26:00.769Z,0.000000
2022-11-08T04:27:00.677Z,0.000000
2022-11-08T04:28:00.750Z,0.000000
2022-11-08T04:29:00.691Z,0.000000
2022-11-08T04:30:05.643Z,0.000000
2022-11-08T04:31:00.716Z,0.000000
2022-11-08T04:32:00.832Z,0.000000
2022-11-08T04:33:00.720Z,0.000000
2022-11-08T04:34:00.785Z,0.000000
2022-11-08T04:35:05.614Z,0.000000
2022-11-08T04:36:00.821Z,0.000000
2022-11-08T04:37:00.751Z,0.000000
2022-11-08T04:38:02.395Z,0.000000
2022-11-08T04:39:00.776Z,0.000000
2022-11-08T04:40:07.757Z,0.000000
2022-11-08T04:41:00.778Z,0.000000
2022-11-08T04:42:02.350Z,0.000000
2022-11-08T04:43:00.785Z,0.000000
2022-11-08T04:44:00.901Z,0.000000
2022-11-08T04:45:05.113Z,0.000000
2022-11-08T04:46:00.873Z,0.000000
2022-11-08T04:47:00.819Z,0.000000
2022-11-08T04:48:00.897Z,0.000000
2022-11-08T04:49:00.834Z,0.000000
2022-11-08T04:50:05.338Z,0.000000
2022-11-08T04:51:00.855Z,0.000000
2022-11-08T04:52:00.930Z,0.000000
2022-11-08T04:53:00.853Z,0.000000
2022-11-08T04:54:00.977Z,0.000000
2022-11-08T04:55:03.881Z,0.000000
2022-11-08T04:56:00.965Z,0.000000
2022-11-08T04:57:00.886Z,0.000000
2022-11-08T04:58:00.953Z,0.000000
2022-11-08T04:59:00.893Z,0.000000
2022-11-08T05:00:05.487Z,0.000000
2022-11-08T05:01:01.029Z,0.000000
2022-11-08T05:02:01.541Z,0.000000
2022-11-08T05:03:00.948Z,0.000000
2022-11-08T05:04:01.036Z,0.000000
2022-11-08T05:05:03.895Z,0.000000
2022-11-08T05:06:01.046Z,0.000000
2022-11-08T05:07:00.976Z,0.000000
2022-11-08T05:08:01.052Z,0.000000
2022-11-08T05:09:01.223Z,0.000000
2022-11-08T05:10:05.605Z,0.000000
2022-11-08T05:11:00.982Z,0.000000
2022-11-08T05:12:01.089Z,0.000000
2022-11-08T05:13:01.012Z,0.000000
2022-11-08T05:14:02.387Z,0.000000
2022-11-08T05:15:04.042Z,0.000000
2022-11-08T05:16:01.094Z,0.000000
2022-11-08T05:17:01.037Z,0.000000
2022-11-08T05:18:01.124Z,0.000000
2022-11-08T05:19:01.055Z,0.000000
2022-11-08T05:20:05.900Z,0.000000
2022-11-08T05:21:01.138Z,0.000000
2022-11-08T05:22:01.275Z,0.000000
2022-11-08T05:23:01.056Z,0.000000
2022-11-08T05:24:01.149Z,0.000000
2022-11-08T05:25:05.730Z,0.000000
2022-11-08T05:26:01.360Z,0.000000
2022-11-08T05:27:01.119Z,0.000000
2022-11-08T05:28:02.359Z,0.000000
2022-11-08T05:29:01.113Z,0.000000
2022-11-08T05:30:04.654Z,0.000000
2022-11-08T05:31:01.133Z,0.000000
2022-11-08T05:32:01.414Z,0.000000
2022-11-08T05:33:01.183Z,0.000000
2022-11-08T05:34:01.229Z,0.000000
2022-11-08T05:35:05.373Z,0.000000
2022-11-08T05:36:05.692Z,0.000000
2022-11-08T05:37:01.176Z,0.000000
2022-11-08T05:38:02.379Z,0.000000
2022-11-08T05:39:01.199Z,0.000000
2022-11-08T05:40:03.349Z,0.000000
2022-11-08T05:41:00.210Z,0.000000
2022-11-08T05:42:00.334Z,0.000000
2022-11-08T05:43:00.213Z,0.000000
2022-11-08T05:44:00.308Z,0.000000
2022-11-08T05:45:09.112Z,0.000000
2022-11-08T05:46:00.319Z,0.000000
2022-11-08T05:47:00.252Z,0.000000
2022-11-08T05:48:00.356Z,0.000000
2022-11-08T05:49:00.270Z,0.000000
2022-11-08T05:50:04.801Z,0.000000
2022-11-08T05:51:00.285Z,0.000000
2022-11-08T05:52:00.369Z,0.000000
2022-11-08T05:53:00.294Z,0.000000
2022-11-08T05:54:00.376Z,0.000000
2022-11-08T05:55:03.460Z,0.000000
2022-11-08T05:56:00.527Z,0.000000
2022-11-08T05:57:00.321Z,0.000000
2022-11-08T05:58:00.420Z,0.000000
2022-11-08T05:59:00.330Z,0.000000
2022-11-08T06:00:04.910Z,0.000000
2022-11-08T06:01:00.371Z,0.000000
2022-11-08T06:02:00.567Z,0.000000
2022-11-08T06:03:00.505Z,0.000000
2022-11-08T06:04:00.450Z,0.000000
2022-11-08T06:05:03.687Z,0.000000
2022-11-08T06:06:00.474Z,2.000000
2022-11-08T06:07:00.412Z,2.000000
2022-11-08T06:08:00.512Z,2.000000
2022-11-08T06:09:00.428Z,6.100000
2022-11-08T06:10:05.302Z,6.100000
2022-11-08T06:11:00.434Z,6.100000
2022-11-08T06:12:00.525Z,10.200000
2022-11-08T06:13:00.443Z,10.200000
2022-11-08T06:14:00.602Z,14.200000
2022-11-08T06:15:04.904Z,14.200000
2022-11-08T06:16:00.553Z,20.300000
2022-11-08T06:17:00.484Z,20.300000
2022-11-08T06:18:00.596Z,20.300000
2022-11-08T06:19:00.494Z,34.600000
2022-11-08T06:20:05.426Z,34.600000
2022-11-08T06:21:00.541Z,48.800000
2022-11-08T06:22:00.591Z,48.800000
2022-11-08T06:23:00.532Z,48.800000
2022-11-08T06:24:00.620Z,65.100000
2022-11-08T06:25:04.122Z,65.100000
2022-11-08T06:26:00.646Z,83.400000
2022-11-08T06:27:00.562Z,83.400000
2022-11-08T06:28:00.661Z,83.400000
2022-11-08T06:29:00.553Z,115.900000
2022-11-08T06:30:05.071Z,115.900000
2022-11-08T06:31:00.595Z,115.900000
2022-11-08T06:32:00.688Z,146.400000
2022-11-08T06:33:00.602Z,146.400000
2022-11-08T06:34:00.690Z,174.900000
2022-11-08T06:35:03.707Z,174.900000
2022-11-08T06:36:00.692Z,215.600000
2022-11-08T06:37:00.635Z,215.600000
2022-11-08T06:38:05.661Z,254.300000
2022-11-08T06:39:00.643Z,254.300000
2022-11-08T06:40:04.100Z,254.300000
2022-11-08T06:41:00.651Z,299.000000
2022-11-08T06:42:02.390Z,299.000000
2022-11-08T06:43:00.664Z,299.000000
2022-11-08T06:44:00.778Z,351.900000
2022-11-08T06:45:03.644Z,351.900000
2022-11-08T06:46:02.565Z,431.200000
2022-11-08T06:47:00.692Z,431.200000
2022-11-08T06:48:00.777Z,518.700000
2022-11-08T06:49:00.716Z,518.700000
2022-11-08T06:50:05.243Z,518.700000
2022-11-08T06:51:00.734Z,852.200000
2022-11-08T06:52:00.792Z,852.200000
2022-11-08T06:53:00.729Z,852.200000
2022-11-08T06:54:02.375Z,1277.400000
2022-11-08T06:55:03.659Z,1277.400000
2022-11-08T06:56:00.862Z,1277.400000
2022-11-08T06:57:00.769Z,1387.200000
2022-11-08T06:58:00.844Z,1387.200000
2022-11-08T06:59:00.777Z,1234.600000
2022-11-08T07:00:07.222Z,1234.600000
2022-11-08T07:01:00.794Z,1234.600000
2022-11-08T07:02:02.652Z,789.200000
2022-11-08T07:03:00.965Z,789.200000
2022-11-08T07:04:00.851Z,789.200000
2022-11-08T07:05:03.750Z,838.000000
2022-11-08T07:06:02.362Z,838.000000
2022-11-08T07:07:00.818Z,917.300000
2022-11-08T07:08:00.916Z,917.300000
2022-11-08T07:09:00.839Z,917.300000
2022-11-08T07:10:05.454Z,3008.000000
2022-11-08T07:11:00.856Z,3008.000000
2022-11-08T07:12:00.931Z,3224.000000
2022-11-08T07:13:00.857Z,3224.000000
2022-11-08T07:14:02.385Z,3224.000000
2022-11-08T07:15:06.468Z,3714.000000
2022-11-08T07:16:00.964Z,3714.000000
2022-11-08T07:17:00.912Z,3678.000000
2022-11-08T07:18:01.111Z,3678.000000
2022-11-08T07:19:00.923Z,3678.000000
2022-11-08T07:20:04.355Z,1584.500000
2022-11-08T07:21:00.954Z,1584.500000
2022-11-08T07:22:02.364Z,1529.600000
2022-11-08T07:23:00.952Z,1529.600000
2022-11-08T07:24:01.040Z,1529.600000
2022-11-08T07:25:05.130Z,1448.200000
2022-11-08T07:26:02.396Z,1448.200000
2022-11-08T07:27:00.981Z,1448.200000
2022-11-08T07:28:01.060Z,1786.000000
2022-11-08T07:29:00.993Z,1786.000000
2022-11-08T07:30:04.160Z,3348.000000
2022-11-08T07:31:01.003Z,3348.000000
2022-11-08T07:32:01.126Z,3348.000000
2022-11-08T07:33:01.018Z,4190.000000
2022-11-08T07:34:02.407Z,4190.000000
2022-11-08T07:35:05.230Z,3153.000000
2022-11-08T07:36:01.123Z,3153.000000
2022-11-08T07:37:01.041Z,3153.000000
2022-11-08T07:38:02.402Z,1802.000000
2022-11-08T07:39:06.267Z,1802.000000
2022-11-08T07:40:04.175Z,1845.000000
2022-11-08T07:41:01.088Z,1845.000000
2022-11-08T07:42:01.154Z,1845.000000
2022-11-08T07:43:23.039Z,1896.000000
2022-11-08T07:44:01.179Z,1896.000000
2022-11-08T07:45:07.287Z,1973.000000
2022-11-08T07:46:01.180Z,1973.000000
2022-11-08T07:47:01.121Z,1973.000000
2022-11-08T07:48:03.421Z,2248.000000
2022-11-08T07:49:01.130Z,2248.000000
2022-11-08T07:50:05.847Z,2724.000000
2022-11-08T07:51:01.144Z,2724.000000
2022-11-08T07:52:02.378Z,2724.000000
2022-11-08T07:53:01.148Z,2862.000000
2022-11-08T07:54:03.204Z,2862.000000
2022-11-08T07:55:05.386Z,4790.000000
2022-11-08T07:56:01.270Z,4790.000000
2022-11-08T07:57:01.206Z,4556.000000
2022-11-08T07:58:00.257Z,4556.000000
2022-11-08T07:59:00.190Z,4556.000000
2022-11-08T08:00:07.466Z,3031.000000
2022-11-08T08:01:00.224Z,3031.000000
2022-11-08T08:02:00.455Z,3031.000000
2022-11-08T08:03:00.348Z,3793.000000
2022-11-08T08:04:00.676Z,3793.000000
2022-11-08T08:05:05.266Z,5218.000000
2022-11-08T08:06:02.482Z,5218.000000
2022-11-08T08:07:00.265Z,5053.000000
2022-11-08T08:08:00.380Z,5053.000000
2022-11-08T08:09:00.286Z,5053.000000
2022-11-08T08:10:05.122Z,3623.000000
2022-11-08T08:11:00.306Z,3623.000000
2022-11-08T08:12:00.391Z,3623.000000
2022-11-08T08:13:00.317Z,2732.000000
2022-11-08T08:14:00.410Z,2732.000000
2022-11-08T08:15:04.522Z,2829.000000
2022-11-08T08:16:00.404Z,2829.000000
2022-11-08T08:17:00.335Z,2829.000000
2022-11-08T08:18:00.431Z,3309.000000
2022-11-08T08:19:00.356Z,3309.000000
2022-11-08T08:20:06.077Z,6205.000000
2022-11-08T08:21:00.374Z,6205.000000
2022-11-08T08:22:00.461Z,6205.000000
2022-11-08T08:23:00.384Z,5848.000000
2022-11-08T08:24:00.461Z,5848.000000
2022-11-08T08:25:03.538Z,3871.000000
2022-11-08T08:26:00.485Z,3871.000000
2022-11-08T08:27:00.424Z,3871.000000
2022-11-08T08:28:00.488Z,3771.000000
2022-11-08T08:29:00.429Z,3771.000000
2022-11-08T08:30:04.938Z,4039.000000
2022-11-08T08:31:00.443Z,4039.000000
2022-11-08T08:32:00.552Z,4039.000000
2022-11-08T08:33:26.252Z,5011.000000
2022-11-08T08:34:00.542Z,5011.000000
2022-11-08T08:35:03.630Z,4736.000000
2022-11-08T08:36:00.566Z,4736.000000
2022-11-08T08:37:00.489Z,4736.000000
2022-11-08T08:38:00.621Z,4213.000000
2022-11-08T08:39:00.505Z,4213.000000
2022-11-08T08:40:04.916Z,3803.000000
2022-11-08T08:41:00.539Z,3803.000000
2022-11-08T08:42:00.618Z,3803.000000
2022-11-08T08:43:00.543Z,3619.000000
2022-11-08T08:44:00.641Z,3619.000000
2022-11-08T08:45:03.646Z,3619.000000
2022-11-08T08:46:00.641Z,3751.000000
2022-11-08T08:47:00.573Z,3751.000000
2022-11-08T08:48:00.646Z,3739.000000
2022-11-08T08:49:00.591Z,3739.000000
2022-11-08T08:50:07.034Z,3739.000000
2022-11-08T08:51:00.616Z,3805.000000
2022-11-08T08:52:00.694Z,3805.000000
2022-11-08T08:53:00.612Z,3910.000000
2022-11-08T08:54:00.729Z,3910.000000
2022-11-08T08:55:04.817Z,3910.000000
2022-11-08T08:56:00.719Z,3972.000000
2022-11-08T08:57:00.638Z,3972.000000
2022-11-08T08:58:00.717Z,3909.000000
2022-11-08T09:02:03.192Z,3939.000000
2022-11-08T09:03:00.714Z,3969.000000
2022-11-08T09:04:01.513Z,3969.000000
2022-11-08T09:05:05.342Z,3969.000000
2022-11-08T09:06:02.403Z,3966.000000
2022-11-08T09:07:00.792Z,3966.000000
2022-11-08T09:08:00.983Z,3966.000000
2022-11-08T09:09:00.747Z,3998.000000
2022-11-08T09:10:06.351Z,3998.000000
2022-11-08T09:11:00.765Z,4080.000000
2022-11-08T09:12:00.865Z,4080.000000
2022-11-08T09:13:00.785Z,4080.000000
2022-11-08T09:14:01.436Z,4084.000000
2022-11-08T09:15:04.061Z,4095.000000
2022-11-08T09:16:00.876Z,4095.000000
2022-11-08T09:17:00.812Z,4095.000000
2022-11-08T09:18:01.008Z,4246.000000
2022-11-08T09:19:00.832Z,4246.000000
2022-11-08T09:20:05.250Z,4246.000000
2022-11-08T09:21:00.851Z,5333.000000
2022-11-08T09:22:00.973Z,5333.000000
2022-11-08T09:23:00.862Z,4810.000000
2022-11-08T09:24:02.394Z,4810.000000
2022-11-08T09:25:03.817Z,4810.000000
2022-11-08T09:26:00.972Z,4076.000000
2022-11-08T09:27:00.887Z,4076.000000
2022-11-08T09:28:02.385Z,4076.000000
2022-11-08T09:29:00.885Z,3910.000000
2022-11-08T09:30:07.472Z,3910.000000
2022-11-08T09:31:00.912Z,3840.000000
2022-11-08T09:32:01.017Z,3840.000000
2022-11-08T09:33:02.104Z,3840.000000
2022-11-08T09:34:01.076Z,4016.000000
2022-11-08T09:36:01.033Z,3874.000000
2022-11-08T09:37:00.966Z,3874.000000
2022-11-08T09:38:02.417Z,3823.000000
2022-11-08T09:39:00.983Z,3823.000000
2022-11-08T09:40:05.436Z,3823.000000
2022-11-08T09:41:00.979Z,3763.000000
2022-11-08T09:42:01.102Z,3763.000000
2022-11-08T09:43:00.997Z,3763.000000
2022-11-08T09:44:01.115Z,3686.000000
2022-11-08T09:45:04.173Z,3686.000000
2022-11-08T09:46:01.113Z,3551.000000
2022-11-08T09:47:01.046Z,3551.000000
2022-11-08T09:48:04.870Z,3358.000000
2022-11-08T09:49:01.059Z,3358.000000
2022-11-08T09:50:06.338Z,3358.000000
2022-11-08T09:51:01.066Z,3128.000000
2022-11-08T09:52:01.135Z,3128.000000
2022-11-08T09:53:01.076Z,3128.000000
2022-11-08T09:54:01.167Z,2915.000000
2022-11-08T09:55:05.398Z,2915.000000
2022-11-08T09:56:02.429Z,2669.000000
2022-11-08T09:57:01.113Z,2669.000000
2022-11-08T09:58:01.211Z,2488.000000
2022-11-08T09:59:01.116Z,2488.000000
2022-11-08T10:00:08.314Z,2488.000000
2022-11-08T10:01:01.160Z,2258.000000
2022-11-08T10:02:01.309Z,2258.000000
2022-11-08T10:03:01.184Z,2258.000000
2022-11-08T10:04:01.245Z,2099.000000
2022-11-08T10:05:04.178Z,2099.000000
2022-11-08T10:06:00.276Z,2099.000000
2022-11-08T10:07:02.734Z,2014.000000
2022-11-08T10:08:00.285Z,2014.000000
2022-11-08T10:09:00.212Z,1973.000000
2022-11-08T10:10:04.625Z,1973.000000
2022-11-08T10:11:00.229Z,1959.000000
2022-11-08T10:12:00.334Z,1959.000000
2022-11-08T10:13:00.241Z,1959.000000
2022-11-08T10:14:00.460Z,1985.000000
2022-11-08T10:15:03.102Z,1985.000000
2022-11-08T10:16:00.344Z,1985.000000
2022-11-08T10:17:00.271Z,2065.000000
2022-11-08T10:18:00.345Z,2065.000000
2022-11-08T10:19:00.285Z,2132.000000
2022-11-08T10:20:06.609Z,2132.000000
2022-11-08T10:21:00.302Z,2132.000000
2022-11-08T10:22:00.364Z,2160.000000
2022-11-08T10:23:00.309Z,2160.000000
2022-11-08T10:24:00.399Z,2160.000000
2022-11-08T10:25:03.322Z,2154.000000
2022-11-08T10:26:00.422Z,2154.000000
2022-11-08T10:27:00.353Z,2168.000000
2022-11-08T10:28:00.412Z,2168.000000
2022-11-08T10:29:00.340Z,2168.000000
2022-11-08T10:30:04.859Z,2217.000000
2022-11-08T10:31:00.367Z,2217.000000
2022-11-08T10:32:00.461Z,2282.000000
2022-11-08T10:33:00.385Z,2282.000000
2022-11-08T10:34:00.468Z,2353.000000
2022-11-08T10:35:03.294Z,2353.000000
2022-11-08T10:36:02.453Z,2353.000000
2022-11-08T10:37:00.419Z,2449.000000
2022-11-08T10:38:00.637Z,2449.000000
2022-11-08T10:39:00.436Z,2449.000000
2022-11-08T10:40:04.824Z,2486.000000
2022-11-08T10:41:00.446Z,2486.000000
2022-11-08T10:42:00.531Z,2502.000000
2022-11-08T10:43:02.517Z,2502.000000
2022-11-08T10:44:00.546Z,2524.000000
2022-11-08T10:45:03.455Z,2524.000000
2022-11-08T10:46:00.570Z,2524.000000
2022-11-08T10:47:00.479Z,2593.000000
2022-11-08T10:48:00.562Z,2593.000000
2022-11-08T10:49:00.499Z,2593.000000
2022-11-08T10:50:04.957Z,2774.000000
2022-11-08T10:51:00.519Z,2774.000000
2022-11-08T10:52:00.593Z,2774.000000
2022-11-08T10:53:00.523Z,2608.000000
2022-11-08T10:54:00.640Z,2608.000000
2022-11-08T10:55:05.160Z,2604.000000
2022-11-08T10:56:00.634Z,2604.000000
2022-11-08T10:57:00.573Z,2610.000000
2022-11-08T10:58:00.649Z,2610.000000
2022-11-08T10:59:00.576Z,2610.000000
2022-11-08T11:00:03.990Z,2642.000000
2022-11-08T11:01:00.635Z,2642.000000
2022-11-08T11:02:00.858Z,2679.000000
2022-11-08T11:03:00.634Z,2679.000000
2022-11-08T11:04:00.710Z,2679.000000
2022-11-08T11:05:04.853Z,2734.000000
2022-11-08T11:06:00.741Z,2734.000000
2022-11-08T11:07:00.758Z,2795.000000
2022-11-08T11:08:02.260Z,2795.000000
2022-11-08T11:09:00.671Z,2795.000000
2022-11-08T11:10:05.162Z,2846.000000
2022-11-08T11:11:00.688Z,2846.000000
2022-11-08T11:12:00.779Z,2846.000000
2022-11-08T11:13:00.725Z,2809.000000
2022-11-08T11:14:00.776Z,2809.000000
2022-11-08T11:15:03.681Z,2724.000000
2022-11-08T11:16:00.792Z,2724.000000
2022-11-08T11:17:00.721Z,2634.000000
2022-11-08T11:18:00.845Z,2634.000000
2022-11-08T11:19:00.751Z,2575.000000
2022-11-08T11:20:05.164Z,2575.000000
2022-11-08T11:21:00.751Z,2575.000000
2022-11-08T11:22:00.821Z,2532.000000
2022-11-08T11:23:00.761Z,2532.000000